Allensville, PA

6:15 PM EDT on April 25, 2015 (GMT -0400)
big valley | | Change Station
CLOSE
Current Station
Personal Weather Station
Location: Belleville, PA
Elevation: 873 ft
Nearby Weather Stations

Elev 873 ft 40.62 °N, 77.71 °W | Updated 5 minutes ago

Partly Cloudy
Partly Cloudy
54.3 °F
Feels Like 54.3 °F
N
4.2
Wind Variable Wind from ESE

Today
High -- | Low -- °F
--% Chance of Precip.
Yesterday
High -- | Low -- °F
Precip. -- in
6:18 AM 8:00 PM
Waxing Crescent, 49% visible
Pressure 29.71 in
Visibility 10.0 miles
Clouds Clear
Dew Point 26 °F
Humidity 34%
Rainfall 0.00 in
Snow Depth Not available.
UV 2 out of 12
Pollen 9.40 out of 12
Air Quality Not available.
Flu Activity Sporadic
METAR KUNV 252153Z 09004KT 10SM SKC 11/M05 A2971

More Conditions Fewer Conditions

Pressure 29.71 in
Visibility 10.0 miles
Clouds Clear
Dew Point 26 °F
Humidity 34%
Rainfall 0.00 in
Snow Depth Not available.
UV 2 out of 12
Pollen 9.40 out of 12
Air Quality Not available.
Flu Activity Sporadic
METAR KUNV 252153Z 09004KT 10SM SKC 11/M05 A2971

More Conditions Fewer Conditions

Nowcast | as of 5:27 PM EDT on April 25, 2015

Bands of showers will be across south central Pennsylvania this evening. Most of the showers will be along the Maryland border but a few showers may get as far north as Route 22 by midnight. The showers are moving southeast at 40 mph.

×

10-Day Weather Forecast

Almanac

Astronomy

Apr. 25, 2015 Rise Set
Actual Time
Civil Twilight
Nautical Twilight
Astronomical Twilight
Moon
Length of Visible Light
Length of Day
Tomorrow will be .
, % of the Moon is Illuminated

Today's Extremes

State Highs State Lows

Community

WunderPhotos

Upload Photos

1,816,827 photos uploaded!

WunderBlogs® & News

Nearby

Air Quality

  Air Quality AQ Index Pollutant
Not available.

Snow Depth

Station Depth Elevation

Earthquake Activity

City Distance Mag. Time & Date
Minimum magnitude displayed is 2.5.

Coastal Water Temperatures

Place Temperature

Stations

Nearby Weather Stations

Station Location Temp. Windchill Dew Point Humidity Wind Precip. Elev Updated Type